createdAt,value
2023-02-23T00:02:22.018Z,5.10
2023-02-23T00:04:50.616Z,5.10
2023-02-23T00:07:21.054Z,5.00
2023-02-23T00:09:50.881Z,5.00
2023-02-23T00:12:20.756Z,5.00
2023-02-23T00:14:49.388Z,5.00
2023-02-23T00:17:18.480Z,4.60
2023-02-23T00:19:50.473Z,5.00
2023-02-23T00:22:18.894Z,5.00
2023-02-23T00:24:48.134Z,5.00
2023-02-23T00:27:20.007Z,5.00
2023-02-23T00:29:49.883Z,4.90
2023-02-23T00:32:20.429Z,4.80
2023-02-23T00:34:50.506Z,4.80
2023-02-23T00:37:20.209Z,4.80
2023-02-23T00:39:50.276Z,4.80
2023-02-23T00:42:18.650Z,4.90
2023-02-23T00:44:48.901Z,4.80
2023-02-23T00:47:17.480Z,4.90
2023-02-23T00:49:46.108Z,4.90
2023-02-23T00:52:15.899Z,5.00
2023-02-23T00:54:44.474Z,5.00
2023-02-23T00:57:12.916Z,5.10
2023-02-23T00:59:41.220Z,5.00
2023-02-23T01:02:10.654Z,5.00
2023-02-23T01:04:39.094Z,5.00
2023-02-23T01:07:07.998Z,4.90
2023-02-23T01:09:40.574Z,5.00
2023-02-23T01:12:09.926Z,4.60
2023-02-23T01:14:39.086Z,4.80
2023-02-23T01:17:07.556Z,4.60
2023-02-23T01:19:38.375Z,4.50
2023-02-23T01:22:07.062Z,4.30
2023-02-23T01:24:39.338Z,4.20
2023-02-23T01:27:09.019Z,4.20
2023-02-23T01:29:37.506Z,4.10
2023-02-23T01:32:06.539Z,4.10
2023-02-23T01:34:34.954Z,4.10
2023-02-23T01:37:04.736Z,5.70
2023-02-23T01:39:34.239Z,4.00
2023-02-23T01:42:05.413Z,4.10
2023-02-23T01:45:26.241Z,4.10
2023-02-23T01:48:03.090Z,4.00
2023-02-23T01:50:40.052Z,4.10
2023-02-23T01:53:08.505Z,4.00
2023-02-23T01:55:37.023Z,4.10
2023-02-23T01:58:16.385Z,3.90
2023-02-23T02:00:51.449Z,4.00
2023-02-23T02:03:29.496Z,4.00
2023-02-23T02:05:59.923Z,4.00
2023-02-23T02:08:31.370Z,4.00
2023-02-23T02:11:08.453Z,4.10
2023-02-23T02:13:37.972Z,4.00
2023-02-23T02:16:53.898Z,4.80
2023-02-23T02:20:42.854Z,4.10
2023-02-23T02:23:58.900Z,4.30
2023-02-23T02:26:46.543Z,4.50
2023-02-23T02:30:10.473Z,4.50
2023-02-23T02:33:32.163Z,4.50
2023-02-23T02:36:31.506Z,4.60
2023-02-23T02:39:22.973Z,4.40
2023-02-23T02:42:05.447Z,4.50
2023-02-23T02:44:50.507Z,4.30
2023-02-23T02:47:26.745Z,5.00
2023-02-23T02:50:06.803Z,4.20
2023-02-23T02:52:42.154Z,4.20
2023-02-23T02:55:20.127Z,4.10
2023-02-23T02:57:48.833Z,4.10
2023-02-23T03:00:47.835Z,4.00
2023-02-23T03:03:49.998Z,3.90
2023-02-23T03:06:39.114Z,3.90
2023-02-23T03:09:43.740Z,4.00
2023-02-23T03:12:48.273Z,4.00
2023-02-23T03:15:55.113Z,4.70
2023-02-23T03:19:08.562Z,3.40
2023-02-23T03:22:09.157Z,4.00
2023-02-23T03:25:01.174Z,4.00
2023-02-23T03:28:05.406Z,4.10
2023-02-23T03:31:06.559Z,4.10
2023-02-23T03:34:05.068Z,5.00
2023-02-23T03:36:57.895Z,4.10
2023-02-23T03:39:53.135Z,4.10
2023-02-23T03:42:55.248Z,4.10
2023-02-23T03:45:46.809Z,3.50
2023-02-23T03:48:40.543Z,4.70
2023-02-23T03:51:31.631Z,4.10
2023-02-23T03:54:26.114Z,4.10
2023-02-23T03:57:17.191Z,4.00
2023-02-23T04:00:11.941Z,4.00
2023-02-23T04:03:06.809Z,4.10
2023-02-23T04:05:56.238Z,4.00
2023-02-23T04:08:51.811Z,4.10
2023-02-23T04:11:46.257Z,4.10
2023-02-23T04:14:24.369Z,4.10
2023-02-23T04:16:52.733Z,4.20
2023-02-23T04:19:22.405Z,4.10
2023-02-23T04:21:50.922Z,4.10
2023-02-23T04:24:19.696Z,4.00
2023-02-23T04:26:48.001Z,4.00
2023-02-23T04:29:16.666Z,3.90
2023-02-23T04:31:45.179Z,3.90
2023-02-23T04:34:13.867Z,1.70
2023-02-23T04:36:43.505Z,3.80
2023-02-23T04:41:40.857Z,3.70
2023-02-23T04:44:09.130Z,3.70
2023-02-23T04:46:37.570Z,3.70
2023-02-23T04:49:05.916Z,3.70
2023-02-23T04:51:35.810Z,3.70
2023-02-23T04:54:08.370Z,3.70
2023-02-23T04:56:40.785Z,3.70
2023-02-23T04:59:09.212Z,3.70
2023-02-23T05:01:38.187Z,3.70
2023-02-23T05:04:06.748Z,3.70
2023-02-23T05:06:35.289Z,3.70
2023-02-23T05:09:06.379Z,3.70
2023-02-23T05:11:35.155Z,3.80
2023-02-23T05:14:03.487Z,3.90
2023-02-23T05:16:31.917Z,3.90
2023-02-23T05:19:00.627Z,3.90
2023-02-23T05:21:29.076Z,3.90
2023-02-23T05:23:57.975Z,5.10
2023-02-23T05:28:57.040Z,3.80
2023-02-23T05:31:26.573Z,3.80
2023-02-23T05:33:55.445Z,3.80
2023-02-23T05:36:24.199Z,6.50
2023-02-23T05:38:52.903Z,3.70
2023-02-23T05:41:23.920Z,3.70
2023-02-23T05:43:56.325Z,3.70
2023-02-23T05:46:27.763Z,3.70
2023-02-23T05:49:00.181Z,3.70
2023-02-23T05:51:31.021Z,3.70
2023-02-23T05:53:59.801Z,3.80
2023-02-23T05:56:29.626Z,3.90
2023-02-23T05:59:03.305Z,3.90
2023-02-23T06:01:32.484Z,4.00
2023-02-23T06:04:01.249Z,4.10
2023-02-23T06:06:29.979Z,4.10
2023-02-23T06:08:58.371Z,4.20
2023-02-23T06:11:27.060Z,4.30
2023-02-23T06:16:25.777Z,4.50
2023-02-23T06:18:54.551Z,4.50
2023-02-23T06:21:23.010Z,4.70
2023-02-23T06:23:51.415Z,4.90
2023-02-23T06:26:20.549Z,4.90
2023-02-23T06:28:48.968Z,5.00
2023-02-23T06:33:49.032Z,4.90
2023-02-23T06:36:17.696Z,4.80
2023-02-23T06:41:16.195Z,4.90
2023-02-23T06:43:44.768Z,4.90
2023-02-23T06:46:14.155Z,4.90
2023-02-23T06:48:42.679Z,4.90
2023-02-23T06:51:12.502Z,4.90
2023-02-23T06:53:40.939Z,5.00
2023-02-23T06:56:12.123Z,5.00
2023-02-23T06:58:40.781Z,5.10
2023-02-23T07:01:09.959Z,5.10
2023-02-23T07:03:38.353Z,5.10
2023-02-23T07:06:07.280Z,5.20
2023-02-23T07:08:37.111Z,5.40
2023-02-23T07:11:13.927Z,5.30
2023-02-23T07:21:11.941Z,5.70
2023-02-23T07:23:41.756Z,5.80
2023-02-23T07:26:10.424Z,5.90
2023-02-23T07:28:40.589Z,5.90
2023-02-23T07:31:09.120Z,6.00
2023-02-23T07:36:06.940Z,6.10
2023-02-23T07:38:35.327Z,6.20
2023-02-23T07:41:05.764Z,6.20
2023-02-23T07:43:34.282Z,6.30
2023-02-23T07:46:03.667Z,6.30
2023-02-23T07:48:35.185Z,6.50
2023-02-23T07:51:10.114Z,6.50
2023-02-23T07:53:38.595Z,6.60
2023-02-23T07:56:11.013Z,6.70
2023-02-23T07:58:40.585Z,7.90
2023-02-23T08:01:10.066Z,6.80
2023-02-23T08:03:38.873Z,7.00
2023-02-23T08:06:08.255Z,7.10
2023-02-23T08:08:40.470Z,7.20
2023-02-23T08:11:10.206Z,7.30
2023-02-23T08:13:38.997Z,7.40
2023-02-23T08:16:08.717Z,7.50
2023-02-23T08:18:37.258Z,7.50
2023-02-23T08:21:06.174Z,7.60
2023-02-23T08:23:36.189Z,7.70
2023-02-23T08:28:34.681Z,7.90
2023-02-23T08:31:03.166Z,8.00
2023-02-23T08:36:05.252Z,8.30
2023-02-23T08:38:33.610Z,8.40
2023-02-23T08:41:02.999Z,9.10
2023-02-23T08:43:31.750Z,8.60
2023-02-23T08:46:01.927Z,8.60
2023-02-23T08:48:30.274Z,8.60
2023-02-23T08:50:59.804Z,8.70
2023-02-23T08:53:30.089Z,8.80
2023-02-23T08:56:00.703Z,8.80
2023-02-23T08:58:31.289Z,8.80
2023-02-23T09:01:05.725Z,8.90
2023-02-23T09:03:38.321Z,8.90
2023-02-23T09:06:12.765Z,9.00
2023-02-23T09:08:41.296Z,9.10
2023-02-23T09:11:09.692Z,9.30
2023-02-23T09:13:38.348Z,9.90
2023-02-23T09:16:09.592Z,8.90
2023-02-23T09:18:39.818Z,9.40
2023-02-23T09:21:18.889Z,9.40
2023-02-23T09:23:49.791Z,9.60
2023-02-23T09:26:19.047Z,9.90
2023-02-23T09:28:47.712Z,9.90
2023-02-23T09:31:20.703Z,9.80
2023-02-23T09:33:49.247Z,9.90
2023-02-23T09:36:21.553Z,10.20
2023-02-23T09:38:55.272Z,10.00
2023-02-23T09:41:55.853Z,11.00
2023-02-23T09:44:41.417Z,10.40
2023-02-23T09:47:30.654Z,10.40
2023-02-23T09:50:01.421Z,10.50
2023-02-23T09:52:45.605Z,10.50
2023-02-23T09:55:16.148Z,10.70
2023-02-23T09:57:50.388Z,10.60
2023-02-23T10:00:25.432Z,12.70
2023-02-23T10:03:25.029Z,10.80
2023-02-23T10:06:01.826Z,10.90
2023-02-23T10:08:53.199Z,11.00
2023-02-23T10:11:31.151Z,11.00
2023-02-23T10:14:24.328Z,11.20
2023-02-23T10:17:14.978Z,11.30
2023-02-23T10:19:54.651Z,11.60
2023-02-23T10:22:23.604Z,11.80
2023-02-23T10:25:01.251Z,11.80
2023-02-23T10:27:39.569Z,12.20
2023-02-23T10:30:21.254Z,12.40
2023-02-23T10:32:58.062Z,12.80
2023-02-23T10:35:32.137Z,13.10
2023-02-23T10:38:03.070Z,13.40
2023-02-23T10:40:39.229Z,13.50
2023-02-23T10:43:07.613Z,13.50
2023-02-23T10:45:44.966Z,13.30
2023-02-23T10:48:21.694Z,13.20
2023-02-23T10:51:00.357Z,13.20
2023-02-23T10:53:35.679Z,13.10
2023-02-23T10:56:10.864Z,13.10
2023-02-23T10:58:46.496Z,12.90
2023-02-23T11:01:17.074Z,12.80
2023-02-23T11:03:57.614Z,12.50
2023-02-23T11:06:35.609Z,12.50
2023-02-23T11:09:41.263Z,12.30
2023-02-23T11:12:24.271Z,12.20
2023-02-23T11:14:56.304Z,12.40
2023-02-23T11:17:33.588Z,12.60
2023-02-23T11:20:21.372Z,12.70
2023-02-23T11:22:52.375Z,12.50
2023-02-23T11:25:30.209Z,12.30
2023-02-23T11:28:00.155Z,12.30
2023-02-23T11:30:38.120Z,12.10
2023-02-23T11:33:11.297Z,11.90
2023-02-23T11:35:40.132Z,11.70
2023-02-23T11:38:25.044Z,11.40
2023-02-23T11:41:03.415Z,11.20
2023-02-23T11:43:36.922Z,11.10
2023-02-23T11:46:05.909Z,11.00
2023-02-23T11:48:43.006Z,10.90
2023-02-23T11:51:12.740Z,10.80
2023-02-23T11:53:47.978Z,10.10
2023-02-23T11:56:24.059Z,10.70
2023-02-23T11:58:55.772Z,10.70
2023-02-23T12:01:39.662Z,10.80
2023-02-23T12:04:09.812Z,10.80
2023-02-23T12:06:41.648Z,10.70
2023-02-23T12:09:26.709Z,11.10
2023-02-23T12:12:04.590Z,11.00
2023-02-23T12:14:41.419Z,11.10
2023-02-23T12:17:17.529Z,11.10
2023-02-23T12:19:52.967Z,11.20
2023-02-23T12:22:33.606Z,11.30
2023-02-23T12:25:12.686Z,11.30
2023-02-23T12:27:47.591Z,11.40
2023-02-23T12:30:24.470Z,11.20
2023-02-23T12:33:00.420Z,11.30
2023-02-23T12:35:41.032Z,11.40
2023-02-23T12:38:20.940Z,11.50
2023-02-23T12:40:51.876Z,11.60
2023-02-23T12:43:32.029Z,11.80
2023-02-23T12:46:12.860Z,11.90
2023-02-23T12:48:53.478Z,12.10
2023-02-23T12:51:36.355Z,12.30
2023-02-23T12:54:06.713Z,13.20
2023-02-23T12:57:00.365Z,13.60
2023-02-23T13:00:34.910Z,14.00
2023-02-23T13:03:51.875Z,14.40
2023-02-23T13:06:36.839Z,14.30
2023-02-23T13:09:26.214Z,14.00
2023-02-23T13:12:22.563Z,13.60
2023-02-23T13:15:03.661Z,13.20
2023-02-23T13:17:41.914Z,13.10
2023-02-23T13:20:25.561Z,12.90
2023-02-23T13:23:01.470Z,12.80
2023-02-23T13:25:42.084Z,12.90
2023-02-23T13:28:22.071Z,12.60
2023-02-23T13:30:50.671Z,12.60
2023-02-23T13:33:43.294Z,12.60
2023-02-23T13:36:17.470Z,12.60
2023-02-23T13:39:19.003Z,12.70
2023-02-23T13:41:58.862Z,12.70
2023-02-23T13:44:37.700Z,12.60
2023-02-23T13:47:23.067Z,12.50
2023-02-23T13:50:00.900Z,12.50
2023-02-23T13:52:39.823Z,12.40
2023-02-23T13:55:50.012Z,12.40
2023-02-23T13:58:26.972Z,12.30
2023-02-23T14:01:10.430Z,12.10
2023-02-23T14:03:48.099Z,12.20
2023-02-23T14:06:21.116Z,12.30
2023-02-23T14:08:59.130Z,12.30
2023-02-23T14:11:43.136Z,12.10
2023-02-23T14:14:17.550Z,12.10
2023-02-23T14:17:12.863Z,12.10
2023-02-23T14:20:24.371Z,12.10
2023-02-23T14:23:36.729Z,11.90
2023-02-23T14:26:16.901Z,11.90
2023-02-23T14:28:50.475Z,11.80
2023-02-23T14:31:25.930Z,11.90
2023-02-23T14:34:07.415Z,11.80
2023-02-23T14:36:43.127Z,11.70
2023-02-23T14:39:21.099Z,11.70
2023-02-23T14:41:55.271Z,11.50
2023-02-23T14:44:31.379Z,11.60
2023-02-23T14:47:08.268Z,11.60
2023-02-23T14:49:44.569Z,11.70
2023-02-23T14:52:21.699Z,11.50
2023-02-23T14:54:50.208Z,11.50
2023-02-23T14:57:22.668Z,11.30
2023-02-23T15:00:01.787Z,11.40
2023-02-23T15:02:32.209Z,11.40
2023-02-23T15:05:16.502Z,11.40
2023-02-23T15:07:45.760Z,11.30
2023-02-23T15:10:22.406Z,11.30
2023-02-23T15:12:51.095Z,11.40
2023-02-23T15:15:23.828Z,11.40
2023-02-23T15:17:56.474Z,11.40
2023-02-23T15:20:32.807Z,11.40
2023-02-23T15:23:04.985Z,11.40
2023-02-23T15:25:40.235Z,11.40
2023-02-23T15:28:29.613Z,11.30
2023-02-23T15:31:02.377Z,11.30
2023-02-23T15:36:09.332Z,11.20
2023-02-23T15:38:49.052Z,11.20
2023-02-23T15:41:29.765Z,11.20
2023-02-23T15:44:09.924Z,11.20
2023-02-23T15:46:39.087Z,11.10
2023-02-23T15:49:07.826Z,11.00
2023-02-23T15:51:48.788Z,11.00
2023-02-23T15:54:23.016Z,11.00
2023-02-23T15:56:58.090Z,11.10
2023-02-23T15:59:31.279Z,11.10
2023-02-23T16:02:03.796Z,11.10
2023-02-23T16:04:36.800Z,11.20
2023-02-23T16:07:19.091Z,11.10
2023-02-23T16:09:57.371Z,11.00
2023-02-23T16:12:33.325Z,11.00
2023-02-23T16:15:04.527Z,11.00
2023-02-23T16:17:48.021Z,10.90
2023-02-23T16:20:29.091Z,10.90
2023-02-23T16:22:59.719Z,10.80
2023-02-23T16:25:30.434Z,10.70
2023-02-23T16:28:04.423Z,10.70
2023-02-23T16:30:43.277Z,10.50
2023-02-23T16:33:21.849Z,10.50
2023-02-23T16:35:52.681Z,10.50
2023-02-23T16:38:28.149Z,10.50
2023-02-23T16:40:56.762Z,10.40
2023-02-23T16:43:25.368Z,10.40
2023-02-23T16:45:54.122Z,10.30
2023-02-23T16:48:24.160Z,10.30
2023-02-23T16:50:52.540Z,10.20
2023-02-23T16:55:57.240Z,10.10
2023-02-23T16:58:29.982Z,10.10
2023-02-23T17:00:58.938Z,10.20
2023-02-23T17:03:30.406Z,10.30
2023-02-23T17:05:59.001Z,10.10
2023-02-23T17:08:27.482Z,10.20
2023-02-23T17:10:57.519Z,10.10
2023-02-23T17:13:29.054Z,10.10
2023-02-23T17:15:58.083Z,10.10
2023-02-23T17:18:30.081Z,10.10
2023-02-23T17:21:01.869Z,10.00
2023-02-23T17:23:38.452Z,9.90
2023-02-23T17:26:11.330Z,9.80
2023-02-23T17:28:40.256Z,9.70
2023-02-23T17:31:10.440Z,9.50
2023-02-23T17:33:40.055Z,9.50
2023-02-23T17:36:12.435Z,9.50
2023-02-23T17:38:44.642Z,9.50
2023-02-23T17:41:17.535Z,9.40
2023-02-23T17:43:46.215Z,9.40
2023-02-23T17:46:15.058Z,9.40
2023-02-23T17:48:44.761Z,9.30
2023-02-23T17:51:17.079Z,9.30
2023-02-23T17:53:46.153Z,9.30
2023-02-23T17:56:17.814Z,9.20
2023-02-23T17:58:46.557Z,9.20
2023-02-23T18:01:16.521Z,9.20
2023-02-23T18:03:45.268Z,9.10
2023-02-23T18:06:15.592Z,9.20
2023-02-23T18:08:45.488Z,9.20
2023-02-23T18:11:18.670Z,9.10
2023-02-23T18:13:48.279Z,9.10
2023-02-23T18:16:17.006Z,9.10
2023-02-23T18:18:48.945Z,9.00
2023-02-23T18:21:21.368Z,9.00
2023-02-23T18:23:50.731Z,8.90
2023-02-23T18:26:24.131Z,8.90
2023-02-23T18:28:52.838Z,8.80
2023-02-23T18:31:28.713Z,8.80
2023-02-23T18:34:00.281Z,8.90
2023-02-23T18:36:38.138Z,8.70
2023-02-23T18:39:09.389Z,8.70
2023-02-23T18:41:39.399Z,8.70
2023-02-23T18:44:16.902Z,8.70
2023-02-23T18:46:47.382Z,8.60
2023-02-23T18:49:17.893Z,8.60
2023-02-23T18:51:46.421Z,8.60
2023-02-23T18:54:16.934Z,8.60
2023-02-23T18:56:48.739Z,8.50
2023-02-23T18:59:17.567Z,8.40
2023-02-23T19:01:47.973Z,8.40
2023-02-23T19:04:16.528Z,8.30
2023-02-23T19:06:47.346Z,8.30
2023-02-23T19:09:21.695Z,8.20
2023-02-23T19:11:51.603Z,8.60
2023-02-23T19:14:32.969Z,8.20
2023-02-23T19:17:09.680Z,8.20
2023-02-23T19:19:38.179Z,7.30
2023-02-23T19:22:06.886Z,8.10
2023-02-23T19:24:37.067Z,8.00
2023-02-23T19:27:06.899Z,8.00
2023-02-23T19:29:35.218Z,8.40
2023-02-23T19:32:04.560Z,8.60
2023-02-23T19:34:32.999Z,7.70
2023-02-23T19:37:01.350Z,7.30
2023-02-23T19:39:29.966Z,7.40
2023-02-23T19:41:58.352Z,7.60
2023-02-23T19:44:28.199Z,7.30
2023-02-23T19:46:57.080Z,7.10
2023-02-23T19:49:26.674Z,7.30
2023-02-23T19:51:55.085Z,7.30
2023-02-23T19:54:29.432Z,7.30
2023-02-23T19:56:57.864Z,7.30
2023-02-23T19:59:28.656Z,7.30
2023-02-23T20:01:57.301Z,7.20
2023-02-23T20:04:27.152Z,7.30
2023-02-23T20:06:56.302Z,7.20
2023-02-23T20:09:24.980Z,7.20
2023-02-23T20:11:53.630Z,7.10
2023-02-23T20:14:25.000Z,7.10
2023-02-23T20:16:54.740Z,7.00
2023-02-23T20:19:23.402Z,7.00
2023-02-23T20:21:51.872Z,6.90
2023-02-23T20:24:20.856Z,6.90
2023-02-23T20:26:52.392Z,6.90
2023-02-23T20:29:21.529Z,6.80
2023-02-23T20:31:52.632Z,6.80
2023-02-23T20:34:25.057Z,6.80
2023-02-23T20:36:55.103Z,6.70
2023-02-23T20:39:24.515Z,6.70
2023-02-23T20:41:53.838Z,6.70
2023-02-23T20:44:25.539Z,6.70
2023-02-23T20:46:53.911Z,6.70
2023-02-23T20:49:24.606Z,6.70
2023-02-23T20:51:52.945Z,6.70
2023-02-23T20:54:21.760Z,6.70
2023-02-23T20:56:58.916Z,6.60
2023-02-23T20:59:30.702Z,6.60
2023-02-23T21:02:01.595Z,6.60
2023-02-23T21:04:32.093Z,6.60
2023-02-23T21:07:00.969Z,6.60
2023-02-23T21:09:30.383Z,6.50
2023-02-23T21:11:58.721Z,6.60
2023-02-23T21:14:27.149Z,6.70
2023-02-23T21:16:55.539Z,6.60
2023-02-23T21:19:24.579Z,6.60
2023-02-23T21:21:58.493Z,6.70
2023-02-23T21:24:29.041Z,6.80
2023-02-23T21:26:57.335Z,6.80
2023-02-23T21:29:25.764Z,6.90
2023-02-23T21:34:23.762Z,6.90
2023-02-23T21:36:54.173Z,6.90
2023-02-23T21:41:51.458Z,7.10
2023-02-23T21:44:19.879Z,7.10
2023-02-23T21:46:48.595Z,7.10
2023-02-23T21:49:18.266Z,7.10
2023-02-23T21:51:46.788Z,6.90
2023-02-23T21:54:18.606Z,7.20
2023-02-23T21:56:47.390Z,7.20
2023-02-23T21:59:15.888Z,7.30
2023-02-23T22:01:44.337Z,7.30
2023-02-23T22:04:16.133Z,8.80
2023-02-23T22:06:46.280Z,7.30
2023-02-23T22:09:20.183Z,7.20
2023-02-23T22:11:49.534Z,7.20
2023-02-23T22:16:47.806Z,7.20
2023-02-23T22:19:17.389Z,8.10
2023-02-23T22:21:47.861Z,6.20
2023-02-23T22:24:18.510Z,11.00
2023-02-23T22:26:54.997Z,7.20
2023-02-23T22:29:26.022Z,7.20
2023-02-23T22:31:54.696Z,7.10
2023-02-23T22:36:52.116Z,6.90
2023-02-23T22:39:21.788Z,6.90
2023-02-23T22:44:22.946Z,6.80
2023-02-23T22:46:53.130Z,6.80
2023-02-23T22:49:21.644Z,6.80
2023-02-23T22:56:52.640Z,6.70
2023-02-23T22:59:21.517Z,6.80
2023-02-23T23:01:51.280Z,6.80
2023-02-23T23:04:22.111Z,6.80
2023-02-23T23:09:21.938Z,7.00
2023-02-23T23:11:56.685Z,7.10
2023-02-23T23:14:25.554Z,7.00
2023-02-23T23:16:54.025Z,6.80
2023-02-23T23:19:24.777Z,7.00
2023-02-23T23:21:56.729Z,6.90
2023-02-23T23:24:27.008Z,6.90
2023-02-23T23:26:59.492Z,6.90
2023-02-23T23:29:30.666Z,7.00
2023-02-23T23:32:01.199Z,6.90
2023-02-23T23:34:33.552Z,6.90
2023-02-23T23:37:03.069Z,6.90
2023-02-23T23:39:32.897Z,6.90
2023-02-23T23:42:02.150Z,6.80
2023-02-23T23:44:30.549Z,6.40
2023-02-23T23:47:05.266Z,6.80
2023-02-23T23:49:38.331Z,6.80
2023-02-23T23:52:07.560Z,6.70
2023-02-23T23:54:41.262Z,6.70
2023-02-23T23:57:11.630Z,6.70
2023-02-23T23:59:45.792Z,6.70
